Time;durP1;ratioP1;P1;durP2;ratioP2;P2;SDS_P1;SDS_P2;PMS_P1;PMS_P2;Temp;Humidity;BMP_temperature;BMP_pressure;BME280_temperature;BME280_humidity;BME280_pressure;Samples;Min_cycle;Max_cycle;Signal;HPM_P1;HPM_P2
2022/02/18 00:01:27;;;;;;;7.65;5.70;;;8.80;96.70;;;;;;5040999;28;20040;-81
2022/02/18 00:04:00;;;;;;;10.20;6.50;;;8.80;96.70;;;;;;5041652;28;20075;-81
2022/02/18 00:06:30;;;;;;;6.50;4.85;;;8.70;96.70;;;;;;5040294;28;20040;-81
2022/02/18 00:08:59;;;;;;;7.43;5.15;;;8.70;96.70;;;;;;5042204;28;20071;-81
2022/02/18 00:11:30;;;;;;;8.30;4.95;;;8.70;96.70;;;;;;5056955;28;20670;-81
2022/02/18 00:13:58;;;;;;;6.78;4.75;;;8.70;96.70;;;;;;5032860;28;20470;-81
2022/02/18 00:16:26;;;;;;;6.32;4.80;;;8.70;96.70;;;;;;5042354;28;20045;-81
2022/02/18 00:18:56;;;;;;;7.75;5.57;;;8.60;96.70;;;;;;5039409;28;20065;-81
2022/02/18 00:21:25;;;;;;;7.57;4.90;;;8.60;96.70;;;;;;5040281;28;20048;-81
2022/02/18 00:23:54;;;;;;;7.00;4.75;;;8.60;96.70;;;;;;5040348;28;20239;-81
2022/02/18 00:26:22;;;;;;;6.07;4.70;;;8.60;96.70;;;;;;5039506;28;20045;-81
2022/02/18 00:28:50;;;;;;;5.93;4.55;;;8.60;96.70;;;;;;5040663;28;20041;-81
2022/02/18 00:31:23;;;;;;;6.55;4.97;;;8.70;96.70;;;;;;5040905;28;20406;-81
2022/02/18 00:33:51;;;;;;;7.50;5.10;;;8.70;96.70;;;;;;5056435;28;20037;-80
2022/02/18 00:36:20;;;;;;;6.47;4.82;;;8.70;96.70;;;;;;5023201;28;20057;-81
2022/02/18 00:38:48;;;;;;;8.73;5.13;;;8.80;96.70;;;;;;5052223;28;20041;-81
2022/02/18 00:41:17;;;;;;;7.57;5.38;;;8.80;96.70;;;;;;5038086;28;20048;-81
2022/02/18 00:43:45;;;;;;;9.63;5.68;;;8.80;96.70;;;;;;5039983;28;20458;-81
2022/02/18 00:46:14;;;;;;;10.38;6.10;;;8.90;96.70;;;;;;5038617;28;20033;-81
2022/02/18 00:48:42;;;;;;;11.10;6.45;;;8.90;96.70;;;;;;5040395;28;20703;-81
2022/02/18 00:51:12;;;;;;;9.32;6.60;;;8.90;96.70;;;;;;5038685;28;20506;-81
2022/02/18 00:53:41;;;;;;;13.55;6.30;;;9.00;96.70;;;;;;5039712;28;20470;-81
2022/02/18 00:56:09;;;;;;;9.75;6.10;;;8.90;96.70;;;;;;5039568;28;20041;-81
2022/02/18 00:58:39;;;;;;;10.13;7.18;;;8.90;96.70;;;;;;5040208;28;20045;-81
2022/02/18 01:01:08;;;;;;;8.13;6.07;;;8.80;96.70;;;;;;5039600;28;20030;-81
2022/02/18 01:03:37;;;;;;;8.90;6.05;;;8.80;96.70;;;;;;5040930;28;20453;-81
2022/02/18 01:06:05;;;;;;;12.15;6.75;;;8.80;96.70;;;;;;5054847;28;20556;-81
2022/02/18 01:08:33;;;;;;;10.88;6.35;;;8.70;96.70;;;;;;5039023;28;20041;-81
2022/02/18 01:11:03;;;;;;;10.23;5.90;;;8.60;96.70;;;;;;5055050;28;20045;-81
2022/02/18 01:13:31;;;;;;;8.70;5.88;;;8.60;96.70;;;;;;5041576;28;20598;-81
2022/02/18 01:16:01;;;;;;;6.82;5.97;;;8.70;96.70;;;;;;5023604;28;20049;-81
2022/02/18 01:18:29;;;;;;;8.43;6.32;;;8.70;96.70;;;;;;5039273;28;20406;-81
2022/02/18 01:20:58;;;;;;;9.70;6.30;;;8.70;96.70;;;;;;5039118;28;20045;-82
2022/02/18 01:23:26;;;;;;;11.98;6.90;;;8.70;96.70;;;;;;5040367;28;20543;-82
2022/02/18 01:25:54;;;;;;;10.32;6.20;;;8.60;96.70;;;;;;5039971;28;20492;-82
2022/02/18 01:28:22;;;;;;;9.93;5.97;;;8.60;96.70;;;;;;5040659;28;20545;-82
2022/02/18 01:30:50;;;;;;;9.07;6.43;;;8.60;96.70;;;;;;5039593;28;20537;-82
2022/02/18 01:33:19;;;;;;;9.82;6.68;;;8.60;96.70;;;;;;5040261;28;20045;-82
2022/02/18 01:35:48;;;;;;;8.95;6.90;;;8.60;96.70;;;;;;5056043;28;20086;-82
2022/02/18 01:38:16;;;;;;;9.43;6.30;;;8.70;96.70;;;;;;5040831;28;20047;-82
2022/02/18 01:40:45;;;;;;;12.23;6.57;;;8.60;96.70;;;;;;5041524;28;20053;-82
2022/02/18 01:43:13;;;;;;;11.05;7.13;;;8.70;96.70;;;;;;5039821;28;20112;-82
2022/02/18 01:45:41;;;;;;;9.02;5.97;;;8.70;96.70;;;;;;5038278;28;20048;-82
2022/02/18 01:48:09;;;;;;;10.38;6.53;;;8.60;96.70;;;;;;5040076;28;20048;-82
2022/02/18 01:50:39;;;;;;;8.27;5.78;;;8.60;96.70;;;;;;5040153;28;20502;-82
2022/02/18 01:53:11;;;;;;;8.95;6.70;;;8.60;96.70;;;;;;5046992;28;20056;-82
2022/02/18 01:55:40;;;;;;;12.07;6.28;;;8.60;96.70;;;;;;5039582;28;20049;-82
2022/02/18 01:58:09;;;;;;;10.30;6.80;;;8.60;96.70;;;;;;5027363;28;20109;-82
2022/02/18 02:00:37;;;;;;;9.30;6.78;;;8.60;96.70;;;;;;5043547;28;20139;-82
2022/02/18 02:03:07;;;;;;;7.97;6.20;;;8.60;96.70;;;;;;5043219;28;20051;-82
2022/02/18 02:05:35;;;;;;;10.02;7.15;;;8.70;96.70;;;;;;5045819;28;20128;-82
2022/02/18 02:08:06;;;;;;;11.90;8.48;;;8.60;96.70;;;;;;5043362;28;20045;-82
2022/02/18 02:10:36;;;;;;;10.63;7.53;;;8.60;96.70;;;;;;5020756;28;20054;-82
2022/02/18 02:13:28;;;;;;;10.15;7.63;;;8.60;96.70;;;;;;5041276;28;20080;-82
2022/02/18 02:15:57;;;;;;;9.90;7.22;;;8.60;96.70;;;;;;5043232;28;20053;-82
2022/02/18 02:18:25;;;;;;;9.65;6.85;;;8.60;96.70;;;;;;5043134;28;20596;-82
2022/02/18 02:20:54;;;;;;;9.68;6.07;;;8.60;96.70;;;;;;5060162;28;20124;-82
2022/02/18 02:23:23;;;;;;;9.40;6.78;;;8.60;96.70;;;;;;5043757;28;20122;-82
2022/02/18 02:25:51;;;;;;;10.05;7.07;;;8.60;96.70;;;;;;5043726;28;20126;-82
2022/02/18 02:28:28;;;;;;;9.20;7.03;;;8.60;96.70;;;;;;5042411;28;20729;-81
2022/02/18 02:30:57;;;;;;;11.27;7.20;;;8.60;96.70;;;;;;5043228;28;20055;-82
2022/02/18 02:33:25;;;;;;;9.18;7.32;;;8.60;96.70;;;;;;5042758;28;20066;-82
2022/02/18 02:35:55;;;;;;;9.68;6.95;;;8.70;96.70;;;;;;5042775;28;20045;-82
2022/02/18 02:38:25;;;;;;;10.43;6.95;;;8.70;96.70;;;;;;5043485;28;20044;-82
2022/02/18 02:40:53;;;;;;;7.90;6.00;;;8.80;96.70;;;;;;5025664;28;20137;-82
2022/02/18 02:43:22;;;;;;;8.80;5.88;;;8.70;96.70;;;;;;5041624;28;20053;-82
2022/02/18 02:45:50;;;;;;;9.38;5.50;;;8.60;96.70;;;;;;5042829;28;20083;-82
2022/02/18 02:48:19;;;;;;;6.40;5.10;;;8.70;96.70;;;;;;5043019;28;20514;-82
2022/02/18 02:51:10;;;;;;;7.88;5.10;;;8.70;96.70;;;;;;5040205;28;20515;-82
2022/02/18 02:53:41;;;;;;;6.97;4.90;;;8.70;96.70;;;;;;5043004;28;20051;-81
2022/02/18 02:56:09;;;;;;;6.38;5.13;;;8.80;96.70;;;;;;5041796;28;20041;-81
2022/02/18 02:58:38;;;;;;;8.60;5.20;;;8.70;96.70;;;;;;5026164;28;20056;-82
2022/02/18 03:01:06;;;;;;;7.32;4.82;;;8.80;96.70;;;;;;5040754;28;20058;-82
2022/02/18 03:03:42;;;;;;;7.43;5.13;;;8.80;96.70;;;;;;5044532;28;20049;-81
2022/02/18 03:06:10;;;;;;;6.78;5.43;;;8.80;96.70;;;;;;5054981;28;20044;-82
2022/02/18 03:08:43;;;;;;;8.05;5.20;;;8.70;96.70;;;;;;5043391;28;20045;-81
2022/02/18 03:11:46;;;;;;;6.85;5.43;;;8.70;96.70;;;;;;4979973;28;20065;-82
2022/02/18 03:14:33;;;;;;;7.90;5.55;;;8.70;96.70;;;;;;4979084;28;20136;-82
2022/02/18 03:17:05;;;;;;;7.72;5.28;;;8.70;96.70;;;;;;4963725;28;20039;-82
2022/02/18 03:19:33;;;;;;;6.75;5.45;;;8.70;96.70;;;;;;4965090;28;20224;-81
2022/02/18 03:22:06;;;;;;;8.15;5.55;;;8.70;96.70;;;;;;4951983;28;20053;-82
2022/02/18 03:24:35;;;;;;;11.52;6.55;;;8.80;96.70;;;;;;4955949;28;20693;-82
2022/02/18 03:27:04;;;;;;;8.60;5.35;;;8.80;96.70;;;;;;4980092;28;20193;-82
2022/02/18 03:29:38;;;;;;;9.32;5.50;;;8.80;96.70;;;;;;4965363;28;20057;-81
2022/02/18 03:32:21;;;;;;;6.82;5.45;;;8.80;96.70;;;;;;4963364;28;20046;-81
2022/02/18 03:34:50;;;;;;;7.93;5.45;;;8.90;96.70;;;;;;4964806;28;20042;-82
2022/02/18 03:37:31;;;;;;;8.15;5.38;;;8.90;96.70;;;;;;4969672;28;20050;-82
2022/02/18 03:40:08;;;;;;;6.85;5.50;;;9.00;96.70;;;;;;4979393;28;20447;-81
2022/02/18 03:42:37;;;;;;;7.60;5.18;;;9.00;96.70;;;;;;4963915;28;20780;-82
2022/02/18 03:45:07;;;;;;;7.95;5.28;;;8.90;96.70;;;;;;4988412;28;20115;-82
2022/02/18 03:47:36;;;;;;;6.15;5.47;;;8.80;96.70;;;;;;5040885;28;20071;-82
2022/02/18 03:50:07;;;;;;;6.63;5.07;;;9.00;96.70;;;;;;5040640;28;20049;-82
2022/02/18 03:52:35;;;;;;;7.88;5.43;;;9.00;96.70;;;;;;5057896;28;20041;-82
2022/02/18 03:55:03;;;;;;;7.40;5.35;;;8.90;96.70;;;;;;5040500;28;20140;-82
2022/02/18 03:57:33;;;;;;;8.88;4.75;;;8.90;96.70;;;;;;5040961;28;20059;-82
2022/02/18 04:00:03;;;;;;;7.72;5.75;;;8.90;96.70;;;;;;5057197;28;20044;-82
2022/02/18 04:02:32;;;;;;;8.63;5.53;;;8.80;96.70;;;;;;5055719;28;20045;-82
2022/02/18 04:05:04;;;;;;;6.68;5.18;;;8.80;96.70;;;;;;5041741;28;20122;-82
2022/02/18 04:07:44;;;;;;;8.35;5.18;;;8.80;96.70;;;;;;5025943;28;20052;-82
2022/02/18 04:10:13;;;;;;;7.10;5.13;;;8.90;96.70;;;;;;5025667;28;20132;-82
2022/02/18 04:12:43;;;;;;;5.68;4.88;;;8.90;96.70;;;;;;5040155;28;20044;-82
2022/02/18 04:15:19;;;;;;;6.57;4.57;;;8.90;96.70;;;;;;5041572;28;20045;-82
2022/02/18 04:17:47;;;;;;;7.75;4.82;;;8.90;96.70;;;;;;5040490;28;20110;-82
2022/02/18 04:20:31;;;;;;;5.35;3.97;;;8.90;96.70;;;;;;5040479;28;20056;-82
2022/02/18 04:23:42;;;;;;;5.72;4.70;;;8.90;96.70;;;;;;5022057;28;20040;-81
2022/02/18 04:26:12;;;;;;;6.07;4.78;;;8.90;96.70;;;;;;5040073;28;20324;-82
2022/02/18 04:28:41;;;;;;;6.35;5.05;;;8.80;96.70;;;;;;5039710;28;20048;-82
2022/02/18 04:31:09;;;;;;;6.25;4.40;;;8.90;96.70;;;;;;5041398;28;20049;-82
2022/02/18 04:33:38;;;;;;;5.47;4.22;;;8.90;96.70;;;;;;5040873;28;20045;-83
2022/02/18 04:36:06;;;;;;;6.90;5.45;;;8.90;96.70;;;;;;5040063;28;20064;-81
2022/02/18 04:38:36;;;;;;;6.57;4.03;;;8.90;96.70;;;;;;5024343;28;20562;-82
2022/02/18 04:41:05;;;;;;;8.25;4.70;;;8.90;96.70;;;;;;5040035;28;20116;-82
2022/02/18 04:43:32;;;;;;;7.40;4.57;;;8.90;96.70;;;;;;5039193;28;20154;-82
2022/02/18 04:46:02;;;;;;;6.57;4.40;;;8.90;96.70;;;;;;5023955;28;20094;-81
2022/02/18 04:48:30;;;;;;;6.20;4.28;;;8.90;96.70;;;;;;5041280;28;20037;-82
2022/02/18 04:50:58;;;;;;;5.50;4.43;;;8.90;96.70;;;;;;5039737;28;20290;-82
2022/02/18 04:53:41;;;;;;;6.15;4.28;;;8.90;96.70;;;;;;5041770;28;20053;-82
2022/02/18 04:56:09;;;;;;;5.65;4.43;;;8.90;96.70;;;;;;5039229;28;20095;-82
2022/02/18 04:58:38;;;;;;;7.15;4.15;;;8.90;96.70;;;;;;5043822;28;20477;-81
2022/02/18 05:01:11;;;;;;;6.38;4.95;;;8.90;96.70;;;;;;5041223;28;20045;-82
2022/02/18 05:03:40;;;;;;;9.25;4.63;;;8.90;96.70;;;;;;5041602;28;20489;-82
2022/02/18 05:06:09;;;;;;;7.82;4.38;;;9.00;96.70;;;;;;5052859;28;20033;-82
2022/02/18 05:08:37;;;;;;;5.43;3.97;;;8.90;96.70;;;;;;5023806;28;20049;-82
2022/02/18 05:11:05;;;;;;;5.10;4.38;;;8.90;96.70;;;;;;5037343;28;20044;-82
2022/02/18 05:13:33;;;;;;;5.38;4.25;;;8.90;96.70;;;;;;5041070;28;20045;-82
2022/02/18 05:16:02;;;;;;;5.55;4.10;;;8.90;96.70;;;;;;5039068;28;20037;-83
2022/02/18 05:18:32;;;;;;;6.00;4.30;;;8.90;96.70;;;;;;5040184;28;20036;-84
2022/02/18 05:21:00;;;;;;;8.27;4.35;;;8.80;96.70;;;;;;5036583;28;20049;-82
2022/02/18 05:23:28;;;;;;;6.07;4.28;;;8.90;96.70;;;;;;5040649;28;20068;-82
2022/02/18 05:25:56;;;;;;;5.13;3.95;;;8.90;96.70;;;;;;5040889;28;20045;-82
2022/02/18 05:28:24;;;;;;;7.22;4.20;;;9.00;96.70;;;;;;5039650;28;20087;-82
2022/02/18 05:30:53;;;;;;;8.77;4.50;;;9.00;96.70;;;;;;5038651;28;20521;-82
2022/02/18 05:33:21;;;;;;;5.35;3.80;;;9.00;96.70;;;;;;5043257;28;20040;-82
2022/02/18 05:35:51;;;;;;;8.65;4.15;;;9.00;96.70;;;;;;5044790;28;20040;-82
2022/02/18 05:38:20;;;;;;;5.88;3.80;;;9.00;96.70;;;;;;5044699;28;20122;-82
2022/02/18 05:40:49;;;;;;;5.22;4.38;;;9.10;96.70;;;;;;5042853;28;20041;-82
2022/02/18 05:43:17;;;;;;;9.40;6.50;;;9.00;96.70;;;;;;5043966;28;20095;-82
2022/02/18 05:45:46;;;;;;;10.45;5.72;;;9.00;96.70;;;;;;5042242;28;20456;-82
2022/02/18 05:48:14;;;;;;;8.82;5.78;;;9.00;96.70;;;;;;5044912;28;20207;-82
2022/02/18 05:50:42;;;;;;;8.63;5.68;;;8.90;96.70;;;;;;5043598;28;20072;-83
2022/02/18 05:53:11;;;;;;;8.57;5.85;;;9.00;96.70;;;;;;5026351;28;20369;-81
2022/02/18 05:55:40;;;;;;;8.35;5.15;;;9.00;96.70;;;;;;5042501;28;20060;-81
2022/02/18 05:58:08;;;;;;;5.97;4.28;;;9.10;96.70;;;;;;5040601;28;20041;-81
2022/02/18 06:00:36;;;;;;;6.55;4.68;;;9.10;96.70;;;;;;5041750;28;20082;-81
2022/02/18 06:03:04;;;;;;;5.57;4.18;;;9.10;96.70;;;;;;5040577;28;20467;-80
2022/02/18 06:05:33;;;;;;;6.85;3.97;;;9.10;96.70;;;;;;5042645;28;20049;-81
2022/02/18 06:08:01;;;;;;;8.75;4.05;;;9.10;96.70;;;;;;5042431;28;20047;-81
2022/02/18 06:10:30;;;;;;;5.70;4.05;;;9.10;96.70;;;;;;5041859;28;20045;-80
2022/02/18 06:12:59;;;;;;;4.97;3.55;;;9.00;96.70;;;;;;5041629;28;20552;-81
2022/02/18 06:15:27;;;;;;;5.03;2.92;;;9.00;96.70;;;;;;5041708;28;20056;-80
2022/02/18 06:17:57;;;;;;;6.80;3.75;;;9.00;96.70;;;;;;5043273;28;20533;-81
2022/02/18 06:20:25;;;;;;;6.07;3.33;;;9.00;96.70;;;;;;5042630;28;20679;-80
2022/02/18 06:22:53;;;;;;;5.53;3.58;;;9.10;96.70;;;;;;5041333;28;20033;-80
2022/02/18 06:25:24;;;;;;;6.22;3.55;;;9.00;96.70;;;;;;5025192;28;20076;-81
2022/02/18 06:28:05;;;;;;;4.43;2.92;;;9.00;96.70;;;;;;5042645;28;20099;-80
2022/02/18 06:30:34;;;;;;;6.18;3.80;;;9.00;96.70;;;;;;5042335;28;20106;-81
2022/02/18 06:33:03;;;;;;;7.45;4.20;;;9.10;96.70;;;;;;5028578;28;20231;-80
2022/02/18 06:35:31;;;;;;;4.93;3.67;;;9.10;96.70;;;;;;5042779;28;20111;-81
2022/02/18 06:37:59;;;;;;;5.43;3.50;;;9.20;96.70;;;;;;5041999;28;20098;-80
2022/02/18 06:40:27;;;;;;;5.57;3.28;;;9.20;96.70;;;;;;5056661;28;20049;-80
2022/02/18 06:42:56;;;;;;;5.75;3.88;;;9.30;96.70;;;;;;5041202;28;20139;-80
2022/02/18 06:45:25;;;;;;;5.25;4.00;;;9.20;96.70;;;;;;5040618;28;20201;-81
2022/02/18 06:47:54;;;;;;;6.32;4.10;;;9.30;96.70;;;;;;5042314;28;20037;-81
2022/02/18 06:50:22;;;;;;;8.38;3.83;;;9.30;96.70;;;;;;5042211;28;20077;-80
2022/02/18 06:52:51;;;;;;;6.45;4.20;;;9.30;96.70;;;;;;5042958;28;20068;-81
2022/02/18 06:55:24;;;;;;;5.97;4.32;;;9.30;96.70;;;;;;5042348;28;20079;-81
2022/02/18 06:57:54;;;;;;;6.00;3.83;;;9.30;96.70;;;;;;5041597;28;20045;-81
2022/02/18 07:00:26;;;;;;;7.72;4.45;;;9.20;96.70;;;;;;5038692;28;20041;-81
2022/02/18 07:02:54;;;;;;;5.47;4.00;;;9.30;96.70;;;;;;5050621;28;20634;-81
2022/02/18 07:05:24;;;;;;;5.30;3.88;;;9.30;96.70;;;;;;5038954;28;20029;-81
2022/02/18 07:07:52;;;;;;;8.23;4.45;;;9.40;96.70;;;;;;5041749;28;20072;-81
2022/02/18 07:10:20;;;;;;;6.85;4.95;;;9.50;96.70;;;;;;5039161;28;20044;-81
2022/02/18 07:12:48;;;;;;;8.65;4.63;;;9.50;96.70;;;;;;5041227;28;20060;-81
2022/02/18 07:15:17;;;;;;;8.10;4.75;;;9.60;96.70;;;;;;5041502;28;20041;-81
2022/02/18 07:17:49;;;;;;;10.50;6.63;;;9.70;96.70;;;;;;5042962;28;20465;-81
2022/02/18 07:20:17;;;;;;;10.90;7.38;;;9.80;96.70;;;;;;5039540;28;20257;-81
2022/02/18 07:22:45;;;;;;;11.23;6.88;;;9.90;96.70;;;;;;5040707;28;20094;-80
2022/02/18 07:25:14;;;;;;;15.75;8.05;;;9.80;96.70;;;;;;5040491;28;20136;-81
2022/02/18 07:27:44;;;;;;;13.43;7.38;;;9.90;96.70;;;;;;5041773;28;20037;-81
2022/02/18 07:30:15;;;;;;;10.63;6.75;;;9.90;96.70;;;;;;5057220;28;20407;-81
2022/02/18 07:32:43;;;;;;;13.98;6.53;;;10.00;96.70;;;;;;5024717;28;20160;-81
2022/02/18 07:35:13;;;;;;;12.10;6.68;;;10.10;96.70;;;;;;5039967;28;20048;-81
2022/02/18 07:37:44;;;;;;;14.15;6.32;;;10.00;96.70;;;;;;5041409;28;20616;-81
2022/02/18 07:40:12;;;;;;;13.00;6.35;;;10.10;96.70;;;;;;5056754;28;20040;-81
2022/02/18 07:42:42;;;;;;;11.27;5.57;;;10.10;96.70;;;;;;5055819;28;20052;-81
2022/02/18 07:45:10;;;;;;;10.43;5.57;;;10.10;96.70;;;;;;5040106;28;20502;-81
2022/02/18 07:47:39;;;;;;;7.93;5.38;;;10.10;96.70;;;;;;5041424;28;20065;-81
2022/02/18 07:50:09;;;;;;;10.50;6.18;;;10.10;96.70;;;;;;5050015;28;20072;-81
2022/02/18 07:52:39;;;;;;;11.30;5.80;;;10.10;96.70;;;;;;5039990;28;20124;-81
2022/02/18 07:55:08;;;;;;;8.68;5.25;;;10.10;96.70;;;;;;5041026;28;20044;-80
2022/02/18 07:57:37;;;;;;;7.30;5.28;;;10.10;96.70;;;;;;5042193;28;20110;-84
2022/02/18 08:00:06;;;;;;;7.30;5.90;;;10.20;96.70;;;;;;5041601;28;20099;-81
2022/02/18 08:02:39;;;;;;;8.43;5.40;;;10.20;96.70;;;;;;5041698;28;20520;-82
2022/02/18 08:05:08;;;;;;;9.23;5.30;;;10.20;96.70;;;;;;5041675;28;20065;-81
2022/02/18 08:07:38;;;;;;;8.57;5.28;;;10.20;96.70;;;;;;5040960;28;20129;-81
2022/02/18 08:10:07;;;;;;;9.30;6.10;;;10.20;96.70;;;;;;5041363;28;20033;-81
2022/02/18 08:55:11;;;;;;;3.05;2.30;;;10.60;96.70;;;;;;5121923;27;20128;-82
2022/02/18 08:57:41;;;;;;;3.58;3.10;;;10.70;96.70;;;;;;5117334;27;20039;-82
2022/02/18 09:00:10;;;;;;;4.93;2.85;;;10.70;96.70;;;;;;5119453;27;20053;-81
2022/02/18 09:02:41;;;;;;;4.97;2.92;;;10.80;96.70;;;;;;5117003;27;20036;-81
2022/02/18 09:05:10;;;;;;;4.80;2.78;;;10.90;96.70;;;;;;5116781;27;20130;-81
2022/02/18 09:07:39;;;;;;;4.07;3.00;;;10.90;96.70;;;;;;5116984;27;20503;-82
2022/02/18 09:10:10;;;;;;;4.50;3.03;;;11.00;96.70;;;;;;5118152;27;20036;-82
2022/02/18 09:12:39;;;;;;;5.65;3.47;;;11.10;96.70;;;;;;5118785;27;20040;-82
2022/02/18 09:15:09;;;;;;;5.05;3.63;;;11.10;96.70;;;;;;5118372;27;20050;-81
2022/02/18 09:18:01;;;;;;;4.57;3.08;;;11.10;96.70;;;;;;5118536;28;20048;-85
2022/02/18 09:20:29;;;;;;;5.38;3.45;;;11.20;96.70;;;;;;5118367;27;20043;-84
2022/02/18 09:22:57;;;;;;;5.00;3.30;;;11.20;96.70;;;;;;5118531;27;20043;-84
2022/02/18 09:25:26;;;;;;;4.68;3.33;;;11.30;96.70;;;;;;5117027;27;20062;-84
2022/02/18 09:27:55;;;;;;;5.25;4.18;;;11.30;96.70;;;;;;5117601;27;20387;-84
2022/02/18 09:30:23;;;;;;;4.50;3.30;;;11.30;96.70;;;;;;5116921;27;20040;-84
2022/02/18 09:33:13;;;;;;;3.92;3.33;;;11.40;96.70;;;;;;5120175;27;20048;-83
2022/02/18 09:35:42;;;;;;;5.68;3.80;;;11.50;96.70;;;;;;5096997;28;20039;-84
2022/02/18 09:38:11;;;;;;;6.03;3.72;;;11.60;96.70;;;;;;5115291;27;20154;-84
2022/02/18 09:40:40;;;;;;;5.50;3.45;;;11.70;96.70;;;;;;5117697;27;20046;-84
2022/02/18 09:43:09;;;;;;;5.90;4.50;;;11.80;96.70;;;;;;5115875;28;20492;-84
2022/02/18 09:45:37;;;;;;;6.20;3.88;;;11.80;96.70;;;;;;5116553;28;20035;-83
2022/02/18 09:48:11;;;;;;;4.75;4.05;;;11.90;96.70;;;;;;5117510;27;20050;-84
2022/02/18 09:50:40;;;;;;;4.35;3.50;;;12.00;96.70;;;;;;5098249;28;20039;-83
2022/02/18 09:53:20;;;;;;;5.13;4.00;;;12.00;96.70;;;;;;5114351;27;20070;-84
2022/02/18 09:55:50;;;;;;;9.27;4.50;;;12.00;96.70;;;;;;5119701;27;20047;-83
2022/02/18 09:58:24;;;;;;;4.15;3.70;;;12.10;96.70;;;;;;5113666;27;20138;-83
2022/02/18 10:00:57;;;;;;;6.43;4.55;;;12.10;96.70;;;;;;5118829;27;20450;-88
2022/02/18 10:03:25;;;;;;;6.53;4.00;;;12.20;96.70;;;;;;5102400;28;20043;-85
2022/02/18 10:05:53;;;;;;;9.13;4.03;;;12.30;96.70;;;;;;5108237;28;20624;-81
2022/02/18 10:08:25;;;;;;;7.15;4.45;;;12.30;96.70;;;;;;5088072;27;20039;-85
2022/02/18 10:11:03;;;;;;;5.72;4.47;;;12.30;96.70;;;;;;5088661;28;20069;-85
2022/02/18 10:13:36;;;;;;;6.57;4.38;;;12.40;96.70;;;;;;5103056;28;20047;-84
2022/02/18 10:16:13;;;;;;;7.45;4.68;;;12.50;96.70;;;;;;5105339;27;20043;-83
2022/02/18 10:18:47;;;;;;;4.82;3.80;;;12.50;96.70;;;;;;5104241;28;20039;-84
2022/02/18 10:21:15;;;;;;;5.85;3.55;;;12.60;96.70;;;;;;5087256;28;20036;-84
2022/02/18 10:23:43;;;;;;;6.93;3.60;;;12.60;96.70;;;;;;5088921;27;20474;-82
2022/02/18 10:26:13;;;;;;;5.68;3.35;;;12.70;96.70;;;;;;5103077;28;20051;-80
2022/02/18 10:28:41;;;;;;;6.65;3.45;;;12.90;96.70;;;;;;5099595;28;20043;-77
2022/02/18 10:31:09;;;;;;;5.60;3.20;;;12.90;96.70;;;;;;5101194;27;20636;-79
2022/02/18 10:33:37;;;;;;;4.38;3.28;;;13.00;96.70;;;;;;5108667;27;20035;-79
2022/02/18 10:36:07;;;;;;;3.40;3.10;;;13.10;96.70;;;;;;5101456;27;20130;-80
2022/02/18 10:38:36;;;;;;;3.97;3.47;;;13.20;96.70;;;;;;5096866;28;20114;-80
2022/02/18 10:41:19;;;;;;;3.72;3.20;;;13.30;96.70;;;;;;5101029;28;20044;-80
2022/02/18 10:43:47;;;;;;;4.15;3.63;;;13.40;96.70;;;;;;5102125;27;20623;-79
2022/02/18 10:46:18;;;;;;;4.43;3.47;;;13.40;96.70;;;;;;5100875;27;20067;-79
2022/02/18 10:48:48;;;;;;;5.97;3.13;;;13.50;96.70;;;;;;5101790;27;20512;-80
2022/02/18 10:51:24;;;;;;;4.78;3.22;;;13.60;96.70;;;;;;5099041;28;20044;-79
2022/02/18 10:53:52;;;;;;;4.80;3.40;;;13.70;96.70;;;;;;5072961;28;20063;-79
2022/02/18 10:56:28;;;;;;;6.63;3.40;;;13.80;96.70;;;;;;5097848;28;20114;-80
2022/02/18 10:58:57;;;;;;;5.47;3.70;;;13.80;96.70;;;;;;5083756;28;20050;-80
2022/02/18 11:01:26;;;;;;;5.00;3.88;;;13.90;96.70;;;;;;5086125;28;20047;-80
2022/02/18 11:03:59;;;;;;;4.93;3.70;;;13.90;96.70;;;;;;5101579;28;20047;-79
2022/02/18 11:06:29;;;;;;;5.22;3.63;;;13.90;96.70;;;;;;5102030;27;20496;-80
2022/02/18 11:08:58;;;;;;;5.95;4.38;;;14.00;96.70;;;;;;5101546;28;20035;-80
2022/02/18 11:11:33;;;;;;;7.15;3.60;;;14.00;96.70;;;;;;5100184;28;20456;-80
2022/02/18 11:14:03;;;;;;;5.00;3.33;;;14.10;96.70;;;;;;5083873;28;20083;-80
2022/02/18 11:16:34;;;;;;;3.42;3.00;;;14.10;96.70;;;;;;5084524;28;20031;-79
2022/02/18 11:19:03;;;;;;;5.78;3.55;;;14.20;96.70;;;;;;5100960;28;20118;-79
2022/02/18 11:21:32;;;;;;;4.75;2.83;;;14.20;96.70;;;;;;5083198;28;20044;-78
2022/02/18 11:24:02;;;;;;;4.30;2.83;;;14.10;96.70;;;;;;5082342;28;20481;-79
2022/02/18 11:26:32;;;;;;;5.32;3.20;;;14.20;96.70;;;;;;5101307;27;20063;-78
2022/02/18 11:29:08;;;;;;;3.50;2.50;;;14.10;96.70;;;;;;5100363;27;20112;-78
2022/02/18 11:31:40;;;;;;;3.55;3.03;;;14.10;96.70;;;;;;5097325;28;20126;-80
2022/02/18 11:35:04;;;;;;;4.07;2.85;;;14.00;96.70;;;;;;5100670;28;20082;-81
2022/02/18 11:38:16;;;;;;;3.83;2.88;;;14.00;96.70;;;;;;5033194;28;20119;-80
2022/02/18 11:40:57;;;;;;;3.78;3.33;;;14.20;96.70;;;;;;5014428;28;20474;-80
2022/02/18 11:43:30;;;;;;;4.20;3.50;;;14.20;96.70;;;;;;5009853;28;20621;-79
2022/02/18 11:46:01;;;;;;;6.35;4.07;;;14.20;96.70;;;;;;5027521;28;20038;-79
2022/02/18 11:48:41;;;;;;;3.95;2.97;;;14.20;96.70;;;;;;5013177;28;20062;-80
2022/02/18 11:51:16;;;;;;;6.18;3.70;;;14.20;96.70;;;;;;5016232;28;20051;-79
2022/02/18 11:53:47;;;;;;;4.82;3.85;;;14.10;96.70;;;;;;5014734;28;20056;-78
2022/02/18 11:56:27;;;;;;;3.58;2.88;;;14.30;96.70;;;;;;5019318;28;20561;-78
2022/02/18 11:59:04;;;;;;;5.60;3.25;;;14.50;96.70;;;;;;5034331;28;20049;-78
2022/02/18 12:02:09;;;;;;;5.30;2.90;;;14.40;96.70;;;;;;5015459;28;20156;-79
2022/02/18 12:04:38;;;;;;;5.88;3.88;;;14.50;96.70;;;;;;5032882;28;20049;-77
2022/02/18 12:07:29;;;;;;;7.63;3.88;;;14.70;96.70;;;;;;5017022;28;20044;-78
2022/02/18 12:10:06;;;;;;;4.93;3.10;;;14.90;96.70;;;;;;5099715;27;20036;-78
2022/02/18 12:12:36;;;;;;;5.40;2.95;;;15.10;96.70;;;;;;5098936;28;20081;-78
2022/02/18 12:15:20;;;;;;;5.22;2.85;;;15.10;96.70;;;;;;5099160;27;20573;-78
2022/02/18 12:17:52;;;;;;;5.43;3.00;;;15.20;96.70;;;;;;5101474;27;20063;-78
2022/02/18 12:20:25;;;;;;;4.60;3.03;;;15.40;96.70;;;;;;5102190;27;20548;-78
2022/02/18 12:22:54;;;;;;;5.22;2.80;;;15.60;96.70;;;;;;5082971;28;20036;-78
2022/02/18 12:25:25;;;;;;;4.80;2.83;;;15.90;96.70;;;;;;5100941;28;20044;-79
2022/02/18 12:27:55;;;;;;;4.38;2.65;;;15.90;96.70;;;;;;5095728;28;20051;-78
2022/02/18 12:30:40;;;;;;;4.90;2.53;;;16.00;96.70;;;;;;5099118;27;20039;-78
2022/02/18 12:33:09;;;;;;;4.50;2.60;;;16.10;96.70;;;;;;5100741;27;20043;-78
2022/02/18 12:35:37;;;;;;;3.45;2.88;;;16.00;96.70;;;;;;5099177;28;20400;-78
2022/02/18 12:38:07;;;;;;;5.05;3.15;;;15.90;96.70;;;;;;5089174;28;20044;-77
2022/02/18 12:40:39;;;;;;;14.23;8.82;;;15.90;96.70;;;;;;5097991;27;20032;-79
2022/02/18 12:43:16;;;;;;;9.85;6.60;;;15.90;96.70;;;;;;5099638;27;20716;-78
2022/02/18 12:45:56;;;;;;;5.38;3.03;;;16.00;96.70;;;;;;5098989;28;20531;-78
2022/02/18 12:48:36;;;;;;;5.90;2.47;;;16.00;96.70;;;;;;5081701;28;20096;-78
2022/02/18 12:51:10;;;;;;;4.80;2.90;;;16.00;96.70;;;;;;5099167;28;20040;-78
2022/02/18 12:53:39;;;;;;;7.22;3.28;;;16.00;96.70;;;;;;5081853;28;20466;-79
2022/02/18 12:56:16;;;;;;;6.32;2.50;;;15.90;96.70;;;;;;5099387;28;20048;-79
2022/02/18 12:58:54;;;;;;;5.72;3.05;;;16.00;96.70;;;;;;5115569;27;20603;-79
2022/02/18 13:01:25;;;;;;;4.80;2.72;;;15.90;96.70;;;;;;5081424;28;20043;-79
2022/02/18 13:03:53;;;;;;;6.63;4.90;;;15.90;96.70;;;;;;5099463;28;20046;-79
2022/02/18 13:06:22;;;;;;;4.60;2.97;;;15.80;96.70;;;;;;5096194;28;20035;-79
2022/02/18 13:08:51;;;;;;;4.70;3.30;;;15.70;96.70;;;;;;5074694;28;20121;-79
2022/02/18 13:11:21;;;;;;;4.97;3.65;;;15.70;96.70;;;;;;5098067;28;20762;-79
2022/02/18 13:13:50;;;;;;;5.97;3.58;;;15.60;96.70;;;;;;5097887;28;20345;-79
2022/02/18 13:16:19;;;;;;;6.32;3.70;;;15.50;96.70;;;;;;5098236;28;20039;-80
2022/02/18 13:18:57;;;;;;;9.40;5.72;;;15.50;96.70;;;;;;5090117;28;20039;-79
2022/02/18 13:21:27;;;;;;;4.80;3.60;;;15.50;96.70;;;;;;5098895;28;20035;-79
2022/02/18 13:23:55;;;;;;;6.25;3.60;;;15.40;96.70;;;;;;5097858;28;20134;-79
2022/02/18 13:26:26;;;;;;;6.70;3.55;;;15.40;96.70;;;;;;5096880;28;20036;-79
2022/02/18 13:28:59;;;;;;;6.07;4.40;;;15.30;96.70;;;;;;5107857;27;20043;-79
2022/02/18 13:31:47;;;;;;;6.38;4.57;;;15.40;96.70;;;;;;5099719;28;20035;-79
2022/02/18 13:34:16;;;;;;;8.20;4.50;;;15.30;96.70;;;;;;5101019;28;20052;-79
2022/02/18 13:36:45;;;;;;;8.52;4.53;;;15.20;96.70;;;;;;5097653;28;20056;-79
2022/02/18 13:39:15;;;;;;;6.05;3.97;;;15.20;96.70;;;;;;5099832;28;20617;-78
2022/02/18 13:41:47;;;;;;;6.90;4.63;;;15.20;96.70;;;;;;5102559;27;20042;-79
2022/02/18 13:44:17;;;;;;;6.30;4.05;;;15.20;96.70;;;;;;5098655;27;20058;-79
2022/02/18 13:46:51;;;;;;;9.15;4.43;;;15.10;96.70;;;;;;5102739;28;20309;-79
2022/02/18 13:49:24;;;;;;;7.20;4.15;;;15.10;96.70;;;;;;5100040;28;20050;-79
2022/02/18 13:51:54;;;;;;;6.72;4.22;;;15.00;96.70;;;;;;5077730;28;20343;-78
2022/02/18 13:54:27;;;;;;;7.18;4.88;;;15.00;96.70;;;;;;5102151;27;20055;-78